sensor_id;sensor_type;location;lat;lon;timestamp;P1;durP1;ratioP1;P2;durP2;ratioP2
22070;SDS011;11200;51.488;6.668;2023-09-12T00:01:04;7.28;;;5.72;;
22070;SDS011;11200;51.488;6.668;2023-09-12T00:03:30;8.20;;;6.45;;
22070;SDS011;11200;51.488;6.668;2023-09-12T00:05:57;8.27;;;6.90;;
22070;SDS011;11200;51.488;6.668;2023-09-12T00:08:24;8.82;;;6.40;;
22070;SDS011;11200;51.488;6.668;2023-09-12T00:11:00;6.40;;;5.80;;
22070;SDS011;11200;51.488;6.668;2023-09-12T00:13:30;7.40;;;6.47;;
22070;SDS011;11200;51.488;6.668;2023-09-12T00:15:56;7.22;;;6.43;;
22070;SDS011;11200;51.488;6.668;2023-09-12T00:18:22;8.20;;;6.30;;
22070;SDS011;11200;51.488;6.668;2023-09-12T00:20:47;7.60;;;5.97;;
22070;SDS011;11200;51.488;6.668;2023-09-12T00:23:15;8.90;;;6.82;;
22070;SDS011;11200;51.488;6.668;2023-09-12T00:25:40;9.73;;;7.63;;
22070;SDS011;11200;51.488;6.668;2023-09-12T00:28:06;9.40;;;7.13;;
22070;SDS011;11200;51.488;6.668;2023-09-12T00:30:31;8.00;;;7.05;;
22070;SDS011;11200;51.488;6.668;2023-09-12T00:32:57;8.75;;;7.13;;
22070;SDS011;11200;51.488;6.668;2023-09-12T00:35:22;9.18;;;8.00;;
22070;SDS011;11200;51.488;6.668;2023-09-12T00:37:48;9.00;;;7.00;;
22070;SDS011;11200;51.488;6.668;2023-09-12T00:40:13;9.35;;;7.32;;
22070;SDS011;11200;51.488;6.668;2023-09-12T00:42:39;8.55;;;7.38;;
22070;SDS011;11200;51.488;6.668;2023-09-12T00:45:06;8.38;;;7.47;;
22070;SDS011;11200;51.488;6.668;2023-09-12T00:47:31;8.13;;;7.32;;
22070;SDS011;11200;51.488;6.668;2023-09-12T00:49:58;8.32;;;7.05;;
22070;SDS011;11200;51.488;6.668;2023-09-12T00:52:25;10.35;;;8.07;;
22070;SDS011;11200;51.488;6.668;2023-09-12T00:54:53;8.95;;;7.57;;
22070;SDS011;11200;51.488;6.668;2023-09-12T00:57:19;8.20;;;6.63;;
22070;SDS011;11200;51.488;6.668;2023-09-12T00:59:47;9.75;;;7.22;;
22070;SDS011;11200;51.488;6.668;2023-09-12T01:02:12;8.02;;;7.20;;
22070;SDS011;11200;51.488;6.668;2023-09-12T01:04:39;7.88;;;7.05;;
22070;SDS011;11200;51.488;6.668;2023-09-12T01:07:05;7.50;;;6.80;;
22070;SDS011;11200;51.488;6.668;2023-09-12T01:09:31;7.68;;;6.70;;
22070;SDS011;11200;51.488;6.668;2023-09-12T01:11:57;7.68;;;6.88;;
22070;SDS011;11200;51.488;6.668;2023-09-12T01:14:24;7.80;;;7.00;;
22070;SDS011;11200;51.488;6.668;2023-09-12T01:16:50;7.57;;;6.30;;
22070;SDS011;11200;51.488;6.668;2023-09-12T01:19:15;9.93;;;7.07;;
22070;SDS011;11200;51.488;6.668;2023-09-12T01:24:41;7.20;;;6.38;;
22070;SDS011;11200;51.488;6.668;2023-09-12T01:27:35;7.00;;;6.30;;
22070;SDS011;11200;51.488;6.668;2023-09-12T01:30:04;7.57;;;6.78;;
22070;SDS011;11200;51.488;6.668;2023-09-12T01:32:31;7.28;;;6.53;;
22070;SDS011;11200;51.488;6.668;2023-09-12T01:34:58;7.00;;;6.30;;
22070;SDS011;11200;51.488;6.668;2023-09-12T01:37:24;7.50;;;6.55;;
22070;SDS011;11200;51.488;6.668;2023-09-12T01:39:51;7.10;;;6.35;;
22070;SDS011;11200;51.488;6.668;2023-09-12T01:42:17;7.38;;;6.60;;
22070;SDS011;11200;51.488;6.668;2023-09-12T01:44:45;8.88;;;6.93;;
22070;SDS011;11200;51.488;6.668;2023-09-12T01:47:14;8.57;;;7.30;;
22070;SDS011;11200;51.488;6.668;2023-09-12T01:49:42;8.50;;;7.10;;
22070;SDS011;11200;51.488;6.668;2023-09-12T01:52:10;9.85;;;7.25;;
22070;SDS011;11200;51.488;6.668;2023-09-12T01:54:36;9.00;;;7.10;;
22070;SDS011;11200;51.488;6.668;2023-09-12T01:57:03;7.75;;;6.70;;
22070;SDS011;11200;51.488;6.668;2023-09-12T01:59:29;9.75;;;7.03;;
22070;SDS011;11200;51.488;6.668;2023-09-12T02:01:55;8.10;;;7.30;;
22070;SDS011;11200;51.488;6.668;2023-09-12T02:04:20;8.13;;;6.43;;
22070;SDS011;11200;51.488;6.668;2023-09-12T02:06:46;8.90;;;6.70;;
22070;SDS011;11200;51.488;6.668;2023-09-12T02:09:11;10.73;;;6.85;;
22070;SDS011;11200;51.488;6.668;2023-09-12T02:11:37;9.40;;;6.35;;
22070;SDS011;11200;51.488;6.668;2023-09-12T02:14:03;7.80;;;6.15;;
22070;SDS011;11200;51.488;6.668;2023-09-12T02:16:29;9.15;;;6.65;;
22070;SDS011;11200;51.488;6.668;2023-09-12T02:18:56;8.63;;;6.35;;
22070;SDS011;11200;51.488;6.668;2023-09-12T02:21:21;6.85;;;6.07;;
22070;SDS011;11200;51.488;6.668;2023-09-12T02:23:47;10.50;;;7.13;;
22070;SDS011;11200;51.488;6.668;2023-09-12T02:26:12;8.23;;;6.38;;
22070;SDS011;11200;51.488;6.668;2023-09-12T02:31:12;10.48;;;6.40;;
22070;SDS011;11200;51.488;6.668;2023-09-12T02:33:38;8.95;;;5.90;;
22070;SDS011;11200;51.488;6.668;2023-09-12T02:36:04;9.15;;;6.43;;
22070;SDS011;11200;51.488;6.668;2023-09-12T02:38:30;7.40;;;5.93;;
22070;SDS011;11200;51.488;6.668;2023-09-12T02:40:56;7.40;;;6.10;;
22070;SDS011;11200;51.488;6.668;2023-09-12T02:43:21;7.65;;;6.22;;
22070;SDS011;11200;51.488;6.668;2023-09-12T02:45:47;7.85;;;5.93;;
22070;SDS011;11200;51.488;6.668;2023-09-12T02:48:12;6.53;;;5.72;;
22070;SDS011;11200;51.488;6.668;2023-09-12T02:50:38;7.88;;;6.20;;
22070;SDS011;11200;51.488;6.668;2023-09-12T02:53:04;7.15;;;5.90;;
22070;SDS011;11200;51.488;6.668;2023-09-12T02:55:29;7.65;;;6.13;;
22070;SDS011;11200;51.488;6.668;2023-09-12T02:57:55;6.07;;;5.28;;
22070;SDS011;11200;51.488;6.668;2023-09-12T03:00:21;8.13;;;5.88;;
22070;SDS011;11200;51.488;6.668;2023-09-12T03:02:47;7.95;;;5.80;;
22070;SDS011;11200;51.488;6.668;2023-09-12T03:05:13;7.53;;;5.50;;
22070;SDS011;11200;51.488;6.668;2023-09-12T03:07:38;5.78;;;5.07;;
22070;SDS011;11200;51.488;6.668;2023-09-12T03:10:04;7.25;;;5.32;;
22070;SDS011;11200;51.488;6.668;2023-09-12T03:12:30;7.72;;;5.85;;
22070;SDS011;11200;51.488;6.668;2023-09-12T03:14:56;7.43;;;5.97;;
22070;SDS011;11200;51.488;6.668;2023-09-12T03:17:21;7.88;;;5.57;;
22070;SDS011;11200;51.488;6.668;2023-09-12T03:19:47;6.10;;;5.40;;
22070;SDS011;11200;51.488;6.668;2023-09-12T03:22:13;8.15;;;5.72;;
22070;SDS011;11200;51.488;6.668;2023-09-12T03:24:38;6.43;;;5.32;;
22070;SDS011;11200;51.488;6.668;2023-09-12T03:27:04;6.45;;;5.50;;
22070;SDS011;11200;51.488;6.668;2023-09-12T03:29:29;8.13;;;5.70;;
22070;SDS011;11200;51.488;6.668;2023-09-12T03:31:55;6.82;;;5.55;;
22070;SDS011;11200;51.488;6.668;2023-09-12T03:34:20;7.63;;;5.57;;
22070;SDS011;11200;51.488;6.668;2023-09-12T03:36:46;5.35;;;4.88;;
22070;SDS011;11200;51.488;6.668;2023-09-12T03:39:12;6.60;;;5.20;;
22070;SDS011;11200;51.488;6.668;2023-09-12T03:41:38;6.80;;;5.70;;
22070;SDS011;11200;51.488;6.668;2023-09-12T03:44:05;6.68;;;5.38;;
22070;SDS011;11200;51.488;6.668;2023-09-12T03:46:31;7.55;;;5.50;;
22070;SDS011;11200;51.488;6.668;2023-09-12T03:48:57;6.70;;;5.40;;
22070;SDS011;11200;51.488;6.668;2023-09-12T03:51:22;5.68;;;5.03;;
22070;SDS011;11200;51.488;6.668;2023-09-12T03:53:48;6.25;;;5.65;;
22070;SDS011;11200;51.488;6.668;2023-09-12T03:56:15;6.30;;;5.47;;
22070;SDS011;11200;51.488;6.668;2023-09-12T03:58:41;6.13;;;5.32;;
22070;SDS011;11200;51.488;6.668;2023-09-12T04:01:07;6.35;;;5.75;;
22070;SDS011;11200;51.488;6.668;2023-09-12T04:03:36;7.35;;;5.20;;
22070;SDS011;11200;51.488;6.668;2023-09-12T04:06:04;5.88;;;5.28;;
22070;SDS011;11200;51.488;6.668;2023-09-12T04:08:33;6.68;;;5.70;;
22070;SDS011;11200;51.488;6.668;2023-09-12T04:11:00;6.82;;;5.60;;
22070;SDS011;11200;51.488;6.668;2023-09-12T04:13:28;5.78;;;5.03;;
22070;SDS011;11200;51.488;6.668;2023-09-12T04:15:55;6.00;;;5.07;;
22070;SDS011;11200;51.488;6.668;2023-09-12T04:18:24;5.97;;;5.43;;
22070;SDS011;11200;51.488;6.668;2023-09-12T04:20:59;6.13;;;5.40;;
22070;SDS011;11200;51.488;6.668;2023-09-12T04:23:27;6.60;;;5.65;;
22070;SDS011;11200;51.488;6.668;2023-09-12T04:25:52;5.88;;;5.28;;
22070;SDS011;11200;51.488;6.668;2023-09-12T04:28:25;6.10;;;4.95;;
22070;SDS011;11200;51.488;6.668;2023-09-12T04:30:51;7.30;;;5.18;;
22070;SDS011;11200;51.488;6.668;2023-09-12T04:33:25;6.38;;;5.10;;
22070;SDS011;11200;51.488;6.668;2023-09-12T04:35:50;6.13;;;4.90;;
22070;SDS011;11200;51.488;6.668;2023-09-12T04:38:16;6.28;;;5.43;;
22070;SDS011;11200;51.488;6.668;2023-09-12T04:40:42;5.47;;;4.95;;
22070;SDS011;11200;51.488;6.668;2023-09-12T04:43:08;6.00;;;5.40;;
22070;SDS011;11200;51.488;6.668;2023-09-12T04:45:33;5.78;;;5.22;;
22070;SDS011;11200;51.488;6.668;2023-09-12T04:47:59;6.72;;;5.55;;
22070;SDS011;11200;51.488;6.668;2023-09-12T04:50:25;5.95;;;5.05;;
22070;SDS011;11200;51.488;6.668;2023-09-12T04:52:50;6.00;;;5.20;;
22070;SDS011;11200;51.488;6.668;2023-09-12T04:55:16;6.88;;;4.85;;
22070;SDS011;11200;51.488;6.668;2023-09-12T04:57:42;5.32;;;4.80;;
22070;SDS011;11200;51.488;6.668;2023-09-12T05:00:09;5.53;;;5.03;;
22070;SDS011;11200;51.488;6.668;2023-09-12T05:02:35;6.78;;;4.97;;
22070;SDS011;11200;51.488;6.668;2023-09-12T05:05:02;6.53;;;5.57;;
22070;SDS011;11200;51.488;6.668;2023-09-12T05:07:28;6.43;;;5.10;;
22070;SDS011;11200;51.488;6.668;2023-09-12T05:09:54;5.65;;;4.80;;
22070;SDS011;11200;51.488;6.668;2023-09-12T05:12:20;5.85;;;5.15;;
22070;SDS011;11200;51.488;6.668;2023-09-12T05:14:45;5.32;;;4.82;;
22070;SDS011;11200;51.488;6.668;2023-09-12T05:17:11;5.38;;;4.88;;
22070;SDS011;11200;51.488;6.668;2023-09-12T05:19:36;7.22;;;5.50;;
22070;SDS011;11200;51.488;6.668;2023-09-12T05:22:02;6.05;;;5.32;;
22070;SDS011;11200;51.488;6.668;2023-09-12T05:24:28;9.05;;;5.78;;
22070;SDS011;11200;51.488;6.668;2023-09-12T05:26:53;6.88;;;5.30;;
22070;SDS011;11200;51.488;6.668;2023-09-12T05:29:19;5.97;;;4.90;;
22070;SDS011;11200;51.488;6.668;2023-09-12T05:31:45;5.40;;;4.90;;
22070;SDS011;11200;51.488;6.668;2023-09-12T05:34:10;6.20;;;4.57;;
22070;SDS011;11200;51.488;6.668;2023-09-12T05:36:36;5.25;;;4.63;;
22070;SDS011;11200;51.488;6.668;2023-09-12T05:39:01;6.10;;;4.90;;
22070;SDS011;11200;51.488;6.668;2023-09-12T05:41:29;5.68;;;4.40;;
22070;SDS011;11200;51.488;6.668;2023-09-12T05:43:54;5.60;;;5.00;;
22070;SDS011;11200;51.488;6.668;2023-09-12T05:46:20;6.25;;;5.35;;
22070;SDS011;11200;51.488;6.668;2023-09-12T05:48:45;5.90;;;5.30;;
22070;SDS011;11200;51.488;6.668;2023-09-12T05:51:11;6.10;;;5.50;;
22070;SDS011;11200;51.488;6.668;2023-09-12T05:53:36;7.43;;;5.47;;
22070;SDS011;11200;51.488;6.668;2023-09-12T05:56:02;5.70;;;4.97;;
22070;SDS011;11200;51.488;6.668;2023-09-12T05:58:27;6.65;;;5.07;;
22070;SDS011;11200;51.488;6.668;2023-09-12T06:00:53;6.07;;;5.18;;
22070;SDS011;11200;51.488;6.668;2023-09-12T06:03:19;5.88;;;5.13;;
22070;SDS011;11200;51.488;6.668;2023-09-12T06:05:44;5.63;;;5.07;;
22070;SDS011;11200;51.488;6.668;2023-09-12T06:08:10;5.45;;;4.90;;
22070;SDS011;11200;51.488;6.668;2023-09-12T06:10:35;6.47;;;5.47;;
22070;SDS011;11200;51.488;6.668;2023-09-12T06:13:01;6.65;;;5.53;;
22070;SDS011;11200;51.488;6.668;2023-09-12T06:15:27;7.50;;;5.40;;
22070;SDS011;11200;51.488;6.668;2023-09-12T06:17:53;6.32;;;5.25;;
22070;SDS011;11200;51.488;6.668;2023-09-12T06:20:22;5.80;;;5.20;;
22070;SDS011;11200;51.488;6.668;2023-09-12T06:22:48;6.30;;;5.53;;
22070;SDS011;11200;51.488;6.668;2023-09-12T06:25:14;6.30;;;5.68;;
22070;SDS011;11200;51.488;6.668;2023-09-12T06:27:40;7.35;;;4.90;;
22070;SDS011;11200;51.488;6.668;2023-09-12T06:30:05;6.07;;;4.90;;
22070;SDS011;11200;51.488;6.668;2023-09-12T06:32:31;6.53;;;5.68;;
22070;SDS011;11200;51.488;6.668;2023-09-12T06:34:57;6.10;;;5.30;;
22070;SDS011;11200;51.488;6.668;2023-09-12T06:37:23;7.20;;;5.55;;
22070;SDS011;11200;51.488;6.668;2023-09-12T06:39:49;6.40;;;5.80;;
22070;SDS011;11200;51.488;6.668;2023-09-12T06:42:18;6.82;;;6.10;;
22070;SDS011;11200;51.488;6.668;2023-09-12T06:44:44;7.13;;;5.97;;
22070;SDS011;11200;51.488;6.668;2023-09-12T06:47:10;6.38;;;5.78;;
22070;SDS011;11200;51.488;6.668;2023-09-12T06:49:35;6.78;;;5.32;;
22070;SDS011;11200;51.488;6.668;2023-09-12T06:52:02;6.00;;;5.40;;
22070;SDS011;11200;51.488;6.668;2023-09-12T06:54:28;7.53;;;5.07;;
22070;SDS011;11200;51.488;6.668;2023-09-12T06:56:54;6.97;;;6.18;;
22070;SDS011;11200;51.488;6.668;2023-09-12T06:59:19;6.50;;;5.53;;
22070;SDS011;11200;51.488;6.668;2023-09-12T07:01:45;6.22;;;5.55;;
22070;SDS011;11200;51.488;6.668;2023-09-12T07:04:11;5.43;;;4.93;;
22070;SDS011;11200;51.488;6.668;2023-09-12T07:06:36;5.72;;;5.07;;
22070;SDS011;11200;51.488;6.668;2023-09-12T07:09:02;7.28;;;5.72;;
22070;SDS011;11200;51.488;6.668;2023-09-12T07:11:29;6.70;;;5.45;;
22070;SDS011;11200;51.488;6.668;2023-09-12T07:13:55;6.50;;;5.03;;
22070;SDS011;11200;51.488;6.668;2023-09-12T07:16:20;5.63;;;4.80;;
22070;SDS011;11200;51.488;6.668;2023-09-12T07:18:47;5.65;;;5.15;;
22070;SDS011;11200;51.488;6.668;2023-09-12T07:21:14;5.35;;;4.85;;
22070;SDS011;11200;51.488;6.668;2023-09-12T07:23:39;5.85;;;4.85;;
22070;SDS011;11200;51.488;6.668;2023-09-12T07:26:05;5.75;;;4.90;;
22070;SDS011;11200;51.488;6.668;2023-09-12T07:28:30;5.63;;;5.03;;
22070;SDS011;11200;51.488;6.668;2023-09-12T07:30:57;5.68;;;4.68;;
22070;SDS011;11200;51.488;6.668;2023-09-12T07:33:23;5.20;;;4.70;;
22070;SDS011;11200;51.488;6.668;2023-09-12T07:35:48;5.95;;;5.28;;
22070;SDS011;11200;51.488;6.668;2023-09-12T07:38:17;5.35;;;4.70;;
22070;SDS011;11200;51.488;6.668;2023-09-12T07:40:44;4.97;;;4.47;;
22070;SDS011;11200;51.488;6.668;2023-09-12T07:43:10;5.35;;;4.50;;
22070;SDS011;11200;51.488;6.668;2023-09-12T07:45:36;4.47;;;3.90;;
22070;SDS011;11200;51.488;6.668;2023-09-12T07:48:06;4.53;;;4.13;;
22070;SDS011;11200;51.488;6.668;2023-09-12T07:50:32;4.95;;;4.45;;
22070;SDS011;11200;51.488;6.668;2023-09-12T07:52:57;4.93;;;4.45;;
22070;SDS011;11200;51.488;6.668;2023-09-12T07:55:23;4.88;;;4.38;;
22070;SDS011;11200;51.488;6.668;2023-09-12T07:57:49;4.70;;;4.30;;
22070;SDS011;11200;51.488;6.668;2023-09-12T08:00:14;4.75;;;4.25;;
22070;SDS011;11200;51.488;6.668;2023-09-12T08:02:41;4.70;;;4.15;;
22070;SDS011;11200;51.488;6.668;2023-09-12T08:05:07;4.78;;;4.18;;
22070;SDS011;11200;51.488;6.668;2023-09-12T08:07:33;4.97;;;4.00;;
22070;SDS011;11200;51.488;6.668;2023-09-12T08:09:59;4.80;;;4.30;;
22070;SDS011;11200;51.488;6.668;2023-09-12T08:12:25;4.38;;;3.97;;
22070;SDS011;11200;51.488;6.668;2023-09-12T08:14:52;5.00;;;4.13;;
22070;SDS011;11200;51.488;6.668;2023-09-12T08:17:18;4.40;;;4.00;;
22070;SDS011;11200;51.488;6.668;2023-09-12T08:19:44;4.40;;;4.00;;
22070;SDS011;11200;51.488;6.668;2023-09-12T08:22:10;5.10;;;4.40;;
22070;SDS011;11200;51.488;6.668;2023-09-12T08:24:37;4.47;;;4.07;;
22070;SDS011;11200;51.488;6.668;2023-09-12T08:27:04;4.78;;;3.97;;
22070;SDS011;11200;51.488;6.668;2023-09-12T08:29:30;5.43;;;4.50;;
22070;SDS011;11200;51.488;6.668;2023-09-12T08:31:57;4.75;;;3.75;;
22070;SDS011;11200;51.488;6.668;2023-09-12T08:34:24;4.50;;;4.07;;
22070;SDS011;11200;51.488;6.668;2023-09-12T08:36:50;4.50;;;4.10;;
22070;SDS011;11200;51.488;6.668;2023-09-12T08:39:18;5.55;;;4.85;;
22070;SDS011;11200;51.488;6.668;2023-09-12T08:41:48;5.30;;;4.80;;
22070;SDS011;11200;51.488;6.668;2023-09-12T08:44:14;5.43;;;4.93;;
22070;SDS011;11200;51.488;6.668;2023-09-12T08:46:43;6.05;;;5.30;;
22070;SDS011;11200;51.488;6.668;2023-09-12T08:49:10;6.13;;;5.15;;
22070;SDS011;11200;51.488;6.668;2023-09-12T08:51:39;5.13;;;4.72;;
22070;SDS011;11200;51.488;6.668;2023-09-12T08:54:05;5.65;;;5.10;;
22070;SDS011;11200;51.488;6.668;2023-09-12T08:56:32;5.25;;;4.55;;
22070;SDS011;11200;51.488;6.668;2023-09-12T08:58:59;5.72;;;4.97;;
22070;SDS011;11200;51.488;6.668;2023-09-12T09:01:26;5.60;;;4.93;;
22070;SDS011;11200;51.488;6.668;2023-09-12T09:03:53;5.43;;;4.68;;
22070;SDS011;11200;51.488;6.668;2023-09-12T09:06:19;5.55;;;4.72;;
22070;SDS011;11200;51.488;6.668;2023-09-12T09:08:47;5.80;;;4.90;;
22070;SDS011;11200;51.488;6.668;2023-09-12T09:11:14;5.20;;;4.70;;
22070;SDS011;11200;51.488;6.668;2023-09-12T09:13:39;5.95;;;4.70;;
22070;SDS011;11200;51.488;6.668;2023-09-12T09:16:09;5.30;;;4.80;;
22070;SDS011;11200;51.488;6.668;2023-09-12T09:18:51;5.65;;;4.53;;
22070;SDS011;11200;51.488;6.668;2023-09-12T09:21:36;5.93;;;5.10;;
22070;SDS011;11200;51.488;6.668;2023-09-12T09:24:08;5.15;;;4.65;;
22070;SDS011;11200;51.488;6.668;2023-09-12T09:26:42;5.43;;;4.22;;
22070;SDS011;11200;51.488;6.668;2023-09-12T09:29:13;5.22;;;4.72;;
22070;SDS011;11200;51.488;6.668;2023-09-12T09:31:41;5.20;;;4.70;;
22070;SDS011;11200;51.488;6.668;2023-09-12T09:36:43;4.90;;;4.43;;
22070;SDS011;11200;51.488;6.668;2023-09-12T09:39:09;5.30;;;4.80;;
22070;SDS011;11200;51.488;6.668;2023-09-12T09:41:36;4.88;;;4.47;;
22070;SDS011;11200;51.488;6.668;2023-09-12T09:44:03;5.13;;;4.60;;
22070;SDS011;11200;51.488;6.668;2023-09-12T09:46:30;4.85;;;4.45;;
22070;SDS011;11200;51.488;6.668;2023-09-12T09:48:57;5.40;;;4.75;;
22070;SDS011;11200;51.488;6.668;2023-09-12T09:51:24;5.28;;;4.38;;
22070;SDS011;11200;51.488;6.668;2023-09-12T09:53:51;5.72;;;4.60;;
22070;SDS011;11200;51.488;6.668;2023-09-12T09:56:17;4.47;;;4.07;;
22070;SDS011;11200;51.488;6.668;2023-09-12T09:58:55;4.30;;;3.90;;
22070;SDS011;11200;51.488;6.668;2023-09-12T10:01:22;4.43;;;4.03;;
22070;SDS011;11200;51.488;6.668;2023-09-12T10:03:50;4.70;;;4.30;;
22070;SDS011;11200;51.488;6.668;2023-09-12T10:06:16;4.97;;;4.53;;
22070;SDS011;11200;51.488;6.668;2023-09-12T10:08:44;4.18;;;3.85;;
22070;SDS011;11200;51.488;6.668;2023-09-12T10:11:13;4.40;;;4.00;;
22070;SDS011;11200;51.488;6.668;2023-09-12T10:13:42;4.28;;;3.92;;
22070;SDS011;11200;51.488;6.668;2023-09-12T10:16:17;4.40;;;4.00;;
22070;SDS011;11200;51.488;6.668;2023-09-12T10:18:56;4.60;;;4.20;;
22070;SDS011;11200;51.488;6.668;2023-09-12T10:21:25;4.35;;;3.95;;
22070;SDS011;11200;51.488;6.668;2023-09-12T10:23:58;4.40;;;4.00;;
22070;SDS011;11200;51.488;6.668;2023-09-12T10:26:24;4.60;;;4.20;;
22070;SDS011;11200;51.488;6.668;2023-09-12T10:28:50;4.50;;;4.10;;
22070;SDS011;11200;51.488;6.668;2023-09-12T10:31:16;4.07;;;3.75;;
22070;SDS011;11200;51.488;6.668;2023-09-12T10:33:43;4.13;;;3.72;;
22070;SDS011;11200;51.488;6.668;2023-09-12T10:36:09;4.45;;;4.05;;
22070;SDS011;11200;51.488;6.668;2023-09-12T10:38:47;4.45;;;4.05;;
22070;SDS011;11200;51.488;6.668;2023-09-12T10:41:14;4.10;;;3.70;;
22070;SDS011;11200;51.488;6.668;2023-09-12T10:43:41;4.05;;;3.75;;
22070;SDS011;11200;51.488;6.668;2023-09-12T10:46:11;4.15;;;3.85;;
22070;SDS011;11200;51.488;6.668;2023-09-12T10:48:36;4.38;;;3.97;;
22070;SDS011;11200;51.488;6.668;2023-09-12T10:51:04;4.25;;;3.85;;
22070;SDS011;11200;51.488;6.668;2023-09-12T10:53:32;4.13;;;3.83;;
22070;SDS011;11200;51.488;6.668;2023-09-12T10:56:20;4.22;;;3.88;;
22070;SDS011;11200;51.488;6.668;2023-09-12T11:01:52;4.68;;;4.28;;
22070;SDS011;11200;51.488;6.668;2023-09-12T11:06:46;4.55;;;4.15;;
22070;SDS011;11200;51.488;6.668;2023-09-12T11:11:47;4.75;;;4.35;;
22070;SDS011;11200;51.488;6.668;2023-09-12T11:14:14;4.53;;;4.13;;
22070;SDS011;11200;51.488;6.668;2023-09-12T11:16:40;4.22;;;3.92;;
22070;SDS011;11200;51.488;6.668;2023-09-12T11:19:16;4.15;;;3.85;;
22070;SDS011;11200;51.488;6.668;2023-09-12T11:21:50;4.13;;;3.83;;
22070;SDS011;11200;51.488;6.668;2023-09-12T11:24:17;4.13;;;3.83;;
22070;SDS011;11200;51.488;6.668;2023-09-12T11:26:59;3.90;;;3.60;;
22070;SDS011;11200;51.488;6.668;2023-09-12T11:29:35;3.88;;;3.47;;
22070;SDS011;11200;51.488;6.668;2023-09-12T11:32:03;4.53;;;4.13;;
22070;SDS011;11200;51.488;6.668;2023-09-12T11:34:30;4.85;;;4.22;;
22070;SDS011;11200;51.488;6.668;2023-09-12T11:37:06;4.63;;;4.07;;
22070;SDS011;11200;51.488;6.668;2023-09-12T11:39:32;4.95;;;4.45;;
22070;SDS011;11200;51.488;6.668;2023-09-12T11:42:00;5.22;;;4.78;;
22070;SDS011;11200;51.488;6.668;2023-09-12T11:44:27;4.93;;;4.43;;
22070;SDS011;11200;51.488;6.668;2023-09-12T11:46:55;4.15;;;3.72;;
22070;SDS011;11200;51.488;6.668;2023-09-12T11:49:28;4.63;;;4.22;;
22070;SDS011;11200;51.488;6.668;2023-09-12T11:52:00;4.65;;;4.25;;
22070;SDS011;11200;51.488;6.668;2023-09-12T11:54:26;4.80;;;4.40;;
22070;SDS011;11200;51.488;6.668;2023-09-12T11:56:52;4.30;;;3.90;;
22070;SDS011;11200;51.488;6.668;2023-09-12T11:59:28;4.32;;;3.92;;
22070;SDS011;11200;51.488;6.668;2023-09-12T12:01:54;4.25;;;3.85;;
22070;SDS011;11200;51.488;6.668;2023-09-12T12:04:24;4.50;;;4.10;;
22070;SDS011;11200;51.488;6.668;2023-09-12T12:06:50;4.97;;;4.43;;
22070;SDS011;11200;51.488;6.668;2023-09-12T12:09:17;4.10;;;3.80;;
22070;SDS011;11200;51.488;6.668;2023-09-12T12:11:44;4.70;;;4.30;;
22070;SDS011;11200;51.488;6.668;2023-09-12T12:14:13;4.50;;;4.10;;
22070;SDS011;11200;51.488;6.668;2023-09-12T12:16:44;4.85;;;4.40;;
22070;SDS011;11200;51.488;6.668;2023-09-12T12:19:10;5.05;;;4.55;;
22070;SDS011;11200;51.488;6.668;2023-09-12T12:21:40;4.20;;;3.80;;
22070;SDS011;11200;51.488;6.668;2023-09-12T12:24:07;4.50;;;4.10;;
22070;SDS011;11200;51.488;6.668;2023-09-12T12:26:35;4.47;;;4.10;;
22070;SDS011;11200;51.488;6.668;2023-09-12T12:29:01;4.90;;;4.43;;
22070;SDS011;11200;51.488;6.668;2023-09-12T12:31:27;4.68;;;4.28;;
22070;SDS011;11200;51.488;6.668;2023-09-12T12:33:54;4.70;;;4.30;;
22070;SDS011;11200;51.488;6.668;2023-09-12T12:36:20;4.95;;;4.55;;
22070;SDS011;11200;51.488;6.668;2023-09-12T12:38:46;4.55;;;4.15;;
22070;SDS011;11200;51.488;6.668;2023-09-12T12:41:17;4.40;;;4.00;;
22070;SDS011;11200;51.488;6.668;2023-09-12T12:43:56;4.75;;;4.35;;
22070;SDS011;11200;51.488;6.668;2023-09-12T12:46:25;4.82;;;4.43;;
22070;SDS011;11200;51.488;6.668;2023-09-12T12:48:52;4.60;;;4.20;;
22070;SDS011;11200;51.488;6.668;2023-09-12T12:53:51;4.60;;;4.30;;
22070;SDS011;11200;51.488;6.668;2023-09-12T12:56:19;4.60;;;4.20;;
22070;SDS011;11200;51.488;6.668;2023-09-12T12:58:57;4.90;;;4.50;;
22070;SDS011;11200;51.488;6.668;2023-09-12T13:01:24;4.65;;;4.35;;
22070;SDS011;11200;51.488;6.668;2023-09-12T13:03:50;4.78;;;4.38;;
22070;SDS011;11200;51.488;6.668;2023-09-12T13:06:19;4.97;;;4.57;;
22070;SDS011;11200;51.488;6.668;2023-09-12T13:08:51;4.93;;;4.53;;
22070;SDS011;11200;51.488;6.668;2023-09-12T13:11:25;5.47;;;4.97;;
22070;SDS011;11200;51.488;6.668;2023-09-12T13:13:52;6.22;;;5.63;;
22070;SDS011;11200;51.488;6.668;2023-09-12T13:16:18;6.20;;;5.40;;
22070;SDS011;11200;51.488;6.668;2023-09-12T13:18:48;5.13;;;4.72;;
22070;SDS011;11200;51.488;6.668;2023-09-12T13:21:17;5.35;;;4.85;;
22070;SDS011;11200;51.488;6.668;2023-09-12T13:23:46;6.00;;;5.50;;
22070;SDS011;11200;51.488;6.668;2023-09-12T13:26:13;5.30;;;4.90;;
22070;SDS011;11200;51.488;6.668;2023-09-12T13:28:41;5.72;;;5.05;;
22070;SDS011;11200;51.488;6.668;2023-09-12T13:31:08;5.60;;;5.10;;
22070;SDS011;11200;51.488;6.668;2023-09-12T13:33:35;5.30;;;4.82;;
22070;SDS011;11200;51.488;6.668;2023-09-12T13:36:01;5.55;;;5.05;;
22070;SDS011;11200;51.488;6.668;2023-09-12T13:38:26;6.28;;;5.05;;
22070;SDS011;11200;51.488;6.668;2023-09-12T13:40:52;5.57;;;5.18;;
22070;SDS011;11200;51.488;6.668;2023-09-12T13:43:17;5.55;;;5.05;;
22070;SDS011;11200;51.488;6.668;2023-09-12T13:45:43;5.40;;;4.90;;
22070;SDS011;11200;51.488;6.668;2023-09-12T13:48:09;5.60;;;5.10;;
22070;SDS011;11200;51.488;6.668;2023-09-12T13:50:34;5.47;;;4.95;;
22070;SDS011;11200;51.488;6.668;2023-09-12T13:53:01;5.07;;;4.68;;
22070;SDS011;11200;51.488;6.668;2023-09-12T13:55:29;5.45;;;5.05;;
22070;SDS011;11200;51.488;6.668;2023-09-12T13:57:55;5.35;;;4.85;;
22070;SDS011;11200;51.488;6.668;2023-09-12T14:00:22;5.57;;;5.07;;
22070;SDS011;11200;51.488;6.668;2023-09-12T14:02:50;5.50;;;5.00;;
22070;SDS011;11200;51.488;6.668;2023-09-12T14:05:16;5.60;;;5.10;;
22070;SDS011;11200;51.488;6.668;2023-09-12T14:07:41;4.85;;;4.45;;
22070;SDS011;11200;51.488;6.668;2023-09-12T14:10:07;4.93;;;4.53;;
22070;SDS011;11200;51.488;6.668;2023-09-12T14:12:33;5.40;;;4.90;;
22070;SDS011;11200;51.488;6.668;2023-09-12T14:14:59;4.78;;;4.40;;
22070;SDS011;11200;51.488;6.668;2023-09-12T14:17:25;5.20;;;4.70;;
22070;SDS011;11200;51.488;6.668;2023-09-12T14:19:52;5.00;;;4.60;;
22070;SDS011;11200;51.488;6.668;2023-09-12T14:22:17;4.90;;;4.50;;
22070;SDS011;11200;51.488;6.668;2023-09-12T14:24:43;5.70;;;5.20;;
22070;SDS011;11200;51.488;6.668;2023-09-12T14:27:09;5.10;;;4.60;;
22070;SDS011;11200;51.488;6.668;2023-09-12T14:29:35;5.00;;;4.60;;
22070;SDS011;11200;51.488;6.668;2023-09-12T14:32:00;5.05;;;4.60;;
22070;SDS011;11200;51.488;6.668;2023-09-12T14:34:26;5.22;;;4.72;;
22070;SDS011;11200;51.488;6.668;2023-09-12T14:36:55;4.95;;;4.55;;
22070;SDS011;11200;51.488;6.668;2023-09-12T14:39:21;5.00;;;4.60;;
22070;SDS011;11200;51.488;6.668;2023-09-12T14:41:48;5.18;;;4.78;;
22070;SDS011;11200;51.488;6.668;2023-09-12T14:44:17;5.22;;;4.72;;
22070;SDS011;11200;51.488;6.668;2023-09-12T14:46:46;4.82;;;4.40;;
22070;SDS011;11200;51.488;6.668;2023-09-12T14:49:12;5.97;;;4.82;;
22070;SDS011;11200;51.488;6.668;2023-09-12T14:51:38;5.30;;;4.90;;
22070;SDS011;11200;51.488;6.668;2023-09-12T14:54:04;5.82;;;4.70;;
22070;SDS011;11200;51.488;6.668;2023-09-12T14:56:31;5.40;;;4.90;;
22070;SDS011;11200;51.488;6.668;2023-09-12T14:58:57;5.35;;;4.85;;
22070;SDS011;11200;51.488;6.668;2023-09-12T15:01:23;5.72;;;4.85;;
22070;SDS011;11200;51.488;6.668;2023-09-12T15:03:49;5.10;;;4.70;;
22070;SDS011;11200;51.488;6.668;2023-09-12T15:06:15;4.65;;;4.25;;